Wekiva Springs, Florida
Current Conditions -  °F | °C
As of 3:53 PM on Wednesday 26 Nov 2014 (Local Time) from KORL Reporting Station
Clear Clear  
Wind Chill: 16°   Ceiling: Unl
Heat Index: 16°   Visibility: 10mi
Dew Point:   Wind: 10mph
Humidity: 64%   Direction: 290°WNW
Pressure: 30.14"   Gusts: NA
Location:  28.7°N, 81.42°W
Report Text: KORL 262053Z 29009KT 10SM CLR 16/09 A3014 RMK AO2 SLP210 T01560089 53003
Loading
Personal Weather Stations






























Interactive Weather Map New forecast layout! Learn more

10-Day Weather Forecast

Advertisements
Track Severe Weather on mobile